Time;durP1;ratioP1;P1;durP2;ratioP2;P2;SDS_P1;SDS_P2;PMS_P1;PMS_P2;Temp;Humidity;BMP_temperature;BMP_pressure;BME280_temperature;BME280_humidity;BME280_pressure;Samples;Min_cycle;Max_cycle;Signal;HPM_P1;HPM_P2
2021/03/17 00:01:06;;;;;;;16.95;3.17;;;15.20;43.60;;;;;;5094699;28;20057;-75
2021/03/17 00:03:32;;;;;;;13.45;3.00;;;15.30;44.10;;;;;;5098136;28;20076;-74
2021/03/17 00:05:59;;;;;;;26.40;4.57;;;15.30;43.90;;;;;;5104342;28;20024;-75
2021/03/17 00:08:25;;;;;;;17.95;3.10;;;15.30;43.90;;;;;;5092501;28;20035;-75
2021/03/17 00:10:54;;;;;;;14.55;4.72;;;15.20;44.00;;;;;;5097232;28;20025;-75
2021/03/17 00:13:26;;;;;;;13.50;4.30;;;15.20;43.70;;;;;;5101905;28;20035;-75
2021/03/17 00:15:56;;;;;;;21.20;4.47;;;15.20;44.20;;;;;;5093450;28;20031;-75
2021/03/17 00:18:23;;;;;;;16.38;4.53;;;15.20;44.00;;;;;;5100091;28;20383;-76
2021/03/17 00:20:49;;;;;;;12.57;2.90;;;15.00;43.70;;;;;;5102586;28;20047;-75
2021/03/17 00:23:17;;;;;;;16.48;3.78;;;15.00;44.20;;;;;;5104714;28;20118;-75
2021/03/17 00:25:43;;;;;;;13.57;3.40;;;14.90;44.20;;;;;;5097686;28;20039;-75
2021/03/17 00:28:11;;;;;;;17.20;4.00;;;14.80;44.50;;;;;;5102927;28;21514;-75
2021/03/17 00:30:40;;;;;;;14.23;3.42;;;14.70;44.90;;;;;;5090131;28;20465;-75
2021/03/17 00:33:11;;;;;;;18.73;4.57;;;14.90;44.60;;;;;;5099091;28;20074;-76
2021/03/17 00:35:39;;;;;;;10.18;3.33;;;14.80;44.30;;;;;;5099438;28;20671;-74
2021/03/17 00:38:06;;;;;;;17.00;3.40;;;14.70;44.30;;;;;;5093539;28;20028;-74
2021/03/17 00:40:34;;;;;;;14.13;3.25;;;14.60;44.70;;;;;;5103532;28;20111;-76
2021/03/17 00:43:01;;;;;;;13.95;2.88;;;14.50;45.00;;;;;;5096695;28;20168;-76
2021/03/17 00:45:28;;;;;;;10.50;3.70;;;14.60;44.80;;;;;;5096796;27;20502;-75
2021/03/17 00:47:55;;;;;;;10.65;3.08;;;14.70;44.80;;;;;;5097431;28;20106;-76
2021/03/17 00:50:22;;;;;;;8.57;2.85;;;14.60;45.20;;;;;;5093237;28;20028;-75
2021/03/17 00:52:48;;;;;;;13.88;3.65;;;14.60;45.50;;;;;;5089079;28;20032;-76
2021/03/17 00:55:15;;;;;;;10.70;3.70;;;14.30;45.80;;;;;;5098162;28;20425;-76
2021/03/17 00:57:42;;;;;;;11.18;3.22;;;14.30;46.10;;;;;;5096985;28;20532;-76
2021/03/17 01:00:11;;;;;;;12.00;3.88;;;14.30;46.00;;;;;;5091325;28;20082;-75
2021/03/17 01:02:39;;;;;;;22.75;4.40;;;14.30;45.60;;;;;;5097376;28;20028;-76
2021/03/17 01:05:07;;;;;;;15.02;3.63;;;14.20;45.90;;;;;;5080676;28;20024;-76
2021/03/17 01:07:33;;;;;;;8.52;2.70;;;14.20;46.20;;;;;;5097091;28;20344;-74
2021/03/17 01:09:59;;;;;;;14.60;3.78;;;14.20;46.30;;;;;;5092375;28;20082;-75
2021/03/17 01:12:26;;;;;;;12.05;3.30;;;14.20;46.10;;;;;;5102695;28;20032;-76
2021/03/17 01:14:52;;;;;;;19.77;3.78;;;14.10;46.30;;;;;;5087837;28;20027;-76
2021/03/17 01:17:19;;;;;;;14.57;4.00;;;14.10;46.10;;;;;;5101368;28;20045;-75
2021/03/17 01:19:45;;;;;;;10.13;3.08;;;14.00;46.50;;;;;;5096236;28;20036;-75
2021/03/17 01:22:12;;;;;;;15.50;3.92;;;13.90;46.50;;;;;;5105657;28;20035;-75
2021/03/17 01:24:38;;;;;;;17.58;3.65;;;13.80;46.80;;;;;;5102161;27;20089;-75
2021/03/17 01:27:05;;;;;;;15.15;4.13;;;13.70;47.10;;;;;;5102254;28;20072;-75
2021/03/17 01:29:31;;;;;;;11.48;3.90;;;13.60;47.40;;;;;;5092107;28;20032;-74
2021/03/17 01:31:58;;;;;;;15.32;2.80;;;13.50;47.70;;;;;;5091906;28;20365;-75
2021/03/17 01:34:25;;;;;;;18.10;4.30;;;13.30;47.90;;;;;;5092771;28;20407;-74
2021/03/17 01:36:51;;;;;;;12.20;3.55;;;13.20;47.90;;;;;;5098568;28;20023;-75
2021/03/17 01:39:18;;;;;;;12.60;3.40;;;13.20;48.00;;;;;;5103632;28;20110;-75
2021/03/17 01:41:44;;;;;;;14.15;3.60;;;13.20;47.40;;;;;;5102095;28;20057;-75
2021/03/17 01:44:12;;;;;;;11.75;3.05;;;13.20;47.70;;;;;;5097039;28;20468;-75
2021/03/17 01:46:38;;;;;;;13.93;4.65;;;13.20;47.80;;;;;;5101658;28;20568;-75
2021/03/17 01:49:05;;;;;;;12.80;3.30;;;13.10;47.90;;;;;;5098168;28;20022;-74
2021/03/17 01:51:31;;;;;;;12.55;3.13;;;13.00;48.00;;;;;;5099901;28;20457;-74
2021/03/17 01:53:59;;;;;;;11.05;3.47;;;12.90;48.00;;;;;;5096868;28;20035;-74
2021/03/17 01:56:26;;;;;;;12.23;2.88;;;12.90;47.90;;;;;;5104457;28;20120;-74
2021/03/17 01:58:52;;;;;;;9.55;2.88;;;12.80;47.70;;;;;;5102020;28;20035;-74
2021/03/17 02:01:18;;;;;;;8.60;3.88;;;12.80;47.90;;;;;;5094094;28;20119;-74
2021/03/17 02:03:45;;;;;;;14.60;3.38;;;12.70;47.80;;;;;;5101125;28;20089;-75
2021/03/17 02:06:13;;;;;;;13.23;3.78;;;12.70;48.20;;;;;;5094107;28;20135;-75
2021/03/17 02:08:43;;;;;;;8.45;2.80;;;12.70;48.60;;;;;;5098096;28;20019;-75
2021/03/17 02:11:11;;;;;;;6.97;2.22;;;12.60;48.60;;;;;;5100688;28;20420;-74
2021/03/17 02:14:01;;;;;;;11.40;3.20;;;12.50;48.60;;;;;;5094244;28;20039;-75
2021/03/17 02:16:38;;;;;;;9.82;2.67;;;12.50;48.60;;;;;;5101371;28;20381;-75
2021/03/17 02:19:32;;;;;;;13.68;2.80;;;12.40;48.00;;;;;;5089392;28;20032;-76
2021/03/17 02:22:17;;;;;;;11.27;4.07;;;12.40;48.70;;;;;;5092220;28;20103;-74
2021/03/17 02:24:59;;;;;;;8.80;3.03;;;12.30;49.20;;;;;;5096063;28;21961;-74
2021/03/17 02:27:54;;;;;;;13.10;3.28;;;12.30;49.50;;;;;;5096484;28;20413;-74
2021/03/17 02:30:39;;;;;;;10.23;3.72;;;12.20;50.00;;;;;;5100923;28;20358;-74
2021/03/17 02:33:45;;;;;;;14.15;2.80;;;12.20;50.00;;;;;;5096029;28;20348;-74
2021/03/17 02:36:17;;;;;;;11.70;4.18;;;12.20;50.40;;;;;;5090332;28;20032;-74
2021/03/17 02:38:52;;;;;;;7.22;3.47;;;12.10;50.50;;;;;;5092655;28;20036;-74
2021/03/17 02:41:26;;;;;;;11.13;3.05;;;12.10;50.40;;;;;;5093859;28;20031;-74
2021/03/17 02:43:57;;;;;;;7.47;2.95;;;12.10;50.80;;;;;;5096849;28;20020;-74
2021/03/17 02:46:26;;;;;;;10.48;3.78;;;11.90;51.30;;;;;;5102879;28;20024;-73
2021/03/17 02:49:05;;;;;;;19.70;2.92;;;12.00;51.50;;;;;;5095683;28;20024;-74
2021/03/17 02:51:36;;;;;;;13.45;3.40;;;12.00;51.80;;;;;;5097748;28;20074;-74
2021/03/17 02:54:07;;;;;;;8.77;3.13;;;11.90;51.70;;;;;;5096330;28;20027;-73
2021/03/17 02:56:39;;;;;;;15.30;3.90;;;11.90;51.90;;;;;;5095381;28;20460;-74
2021/03/17 02:59:07;;;;;;;16.23;4.85;;;11.80;52.00;;;;;;5092790;28;20023;-73
2021/03/17 03:01:35;;;;;;;19.05;4.80;;;11.80;52.30;;;;;;5099160;28;20023;-73
2021/03/17 03:04:05;;;;;;;18.65;3.67;;;11.80;52.80;;;;;;5098720;28;20024;-74
2021/03/17 03:06:32;;;;;;;11.70;3.53;;;11.80;53.00;;;;;;5088281;28;20645;-75
2021/03/17 03:09:01;;;;;;;14.95;3.53;;;11.80;53.10;;;;;;5092177;28;20372;-74
2021/03/17 03:11:28;;;;;;;15.20;3.22;;;11.80;53.10;;;;;;5100513;28;20063;-74
2021/03/17 03:13:55;;;;;;;13.18;3.00;;;11.70;52.60;;;;;;5094957;28;20040;-74
2021/03/17 03:16:24;;;;;;;11.30;3.78;;;11.70;53.30;;;;;;5084957;28;20111;-72
2021/03/17 03:18:53;;;;;;;17.42;3.80;;;11.70;53.40;;;;;;5095357;28;21066;-76
2021/03/17 03:21:24;;;;;;;10.07;3.53;;;11.60;53.50;;;;;;5097973;28;20039;-75
2021/03/17 03:23:52;;;;;;;12.52;5.03;;;11.60;53.50;;;;;;5094673;28;20205;-75
2021/03/17 03:26:19;;;;;;;13.40;2.78;;;11.40;54.30;;;;;;5100757;28;20030;-74
2021/03/17 03:28:48;;;;;;;14.23;3.28;;;11.50;53.10;;;;;;5100915;28;20027;-74
2021/03/17 03:31:15;;;;;;;12.52;3.58;;;11.60;53.10;;;;;;5100021;28;20475;-73
2021/03/17 03:33:42;;;;;;;15.73;3.10;;;11.40;53.60;;;;;;5092523;28;20054;-74
2021/03/17 03:36:09;;;;;;;7.82;3.22;;;11.40;53.50;;;;;;5097014;28;20031;-75
2021/03/17 03:38:35;;;;;;;15.55;3.95;;;11.20;54.00;;;;;;5098883;28;20147;-74
2021/03/17 03:41:02;;;;;;;17.33;3.58;;;11.10;55.00;;;;;;5090499;28;20330;-74
2021/03/17 03:43:29;;;;;;;14.63;3.30;;;11.00;54.80;;;;;;5091433;28;20713;-76
2021/03/17 03:45:55;;;;;;;12.63;3.67;;;10.90;55.80;;;;;;5096040;28;20024;-75
2021/03/17 03:48:23;;;;;;;10.95;3.72;;;11.00;55.60;;;;;;5087091;28;20080;-75
2021/03/17 03:50:51;;;;;;;10.75;3.25;;;11.00;54.10;;;;;;5097644;28;20419;-75
2021/03/17 03:53:30;;;;;;;11.52;3.28;;;10.80;56.10;;;;;;5092255;28;20031;-75
2021/03/17 03:56:04;;;;;;;12.52;4.10;;;10.90;55.60;;;;;;5097510;28;20107;-74
2021/03/17 03:58:37;;;;;;;13.60;3.70;;;10.80;55.70;;;;;;5094872;28;20031;-76
2021/03/17 04:01:12;;;;;;;10.43;3.85;;;10.70;56.40;;;;;;5098698;28;20491;-75
2021/03/17 04:03:44;;;;;;;18.25;3.83;;;10.50;56.70;;;;;;5089109;28;20039;-75
2021/03/17 04:06:12;;;;;;;13.85;3.22;;;10.50;57.20;;;;;;5092358;28;20095;-75
2021/03/17 04:08:45;;;;;;;11.35;3.50;;;10.50;56.50;;;;;;5098625;28;20023;-76
2021/03/17 04:11:13;;;;;;;12.07;3.67;;;10.40;57.00;;;;;;5093622;28;20023;-75
2021/03/17 04:13:42;;;;;;;10.82;4.15;;;10.60;55.70;;;;;;5101059;28;20016;-75
2021/03/17 04:16:09;;;;;;;11.32;4.68;;;10.60;55.80;;;;;;5098674;28;20036;-75
2021/03/17 04:18:47;;;;;;;15.57;5.38;;;10.60;55.30;;;;;;5099078;28;20028;-76
2021/03/17 04:21:18;;;;;;;16.50;5.25;;;10.70;54.90;;;;;;5094511;28;20031;-78
2021/03/17 04:23:47;;;;;;;14.23;3.67;;;10.80;54.70;;;;;;5099752;28;20502;-75
2021/03/17 04:26:16;;;;;;;12.98;4.60;;;10.80;54.20;;;;;;5102138;28;20020;-75
2021/03/17 04:28:45;;;;;;;8.75;4.05;;;10.80;54.50;;;;;;5102717;28;20020;-75
2021/03/17 04:31:12;;;;;;;7.57;2.80;;;10.80;54.70;;;;;;5099607;28;20024;-75
2021/03/17 04:33:39;;;;;;;13.52;3.83;;;10.70;54.80;;;;;;5100058;28;20197;-75
2021/03/17 04:36:08;;;;;;;13.80;3.42;;;10.70;55.00;;;;;;5099231;28;20020;-75
2021/03/17 04:38:36;;;;;;;8.15;3.17;;;10.60;54.80;;;;;;5101562;28;20024;-75
2021/03/17 04:41:03;;;;;;;5.13;2.90;;;10.50;55.40;;;;;;5104686;28;20125;-75
2021/03/17 04:43:30;;;;;;;6.47;2.70;;;10.50;55.20;;;;;;5102838;28;20023;-76
2021/03/17 04:45:59;;;;;;;10.15;2.75;;;10.40;54.90;;;;;;5106933;27;20055;-75
2021/03/17 04:48:27;;;;;;;9.85;3.40;;;10.40;55.10;;;;;;5101799;28;20031;-75
2021/03/17 04:50:54;;;;;;;6.47;2.67;;;10.30;55.10;;;;;;5104894;28;20017;-75
2021/03/17 04:53:21;;;;;;;6.03;2.60;;;10.30;54.90;;;;;;5103719;28;20024;-75
2021/03/17 04:55:48;;;;;;;8.90;3.08;;;10.20;55.00;;;;;;5103983;28;20032;-75
2021/03/17 04:58:20;;;;;;;8.07;3.88;;;10.10;54.90;;;;;;5104405;28;20035;-75
2021/03/17 05:00:47;;;;;;;;;;;10.10;55.70;;;;;;5105361;28;20066;-75
2021/03/17 05:03:16;;;;;;;12.52;3.55;;;10.00;54.50;;;;;;5103981;28;19938;-75
2021/03/17 05:05:44;;;;;;;14.98;4.50;;;10.00;55.60;;;;;;5104085;28;20092;-74
2021/03/17 05:08:11;;;;;;;24.38;4.88;;;9.90;57.40;;;;;;5104279;28;20069;-74
2021/03/17 05:10:40;;;;;;;16.13;4.55;;;10.00;55.70;;;;;;5104497;28;20449;-75
2021/03/17 05:13:09;;;;;;;12.52;4.80;;;10.00;56.30;;;;;;5104403;28;20028;-74
2021/03/17 05:15:37;;;;;;;15.18;6.57;;;10.00;56.60;;;;;;5098316;28;20028;-74
2021/03/17 05:18:05;;;;;;;19.35;4.90;;;9.90;56.40;;;;;;5097101;28;20024;-74
2021/03/17 05:20:33;;;;;;;12.40;4.43;;;10.00;56.50;;;;;;5099862;28;20054;-75
2021/03/17 05:23:00;;;;;;;12.35;3.58;;;10.00;56.40;;;;;;5102507;28;20093;-74
2021/03/17 05:25:28;;;;;;;13.77;3.13;;;9.90;56.60;;;;;;5095627;28;20042;-75
2021/03/17 05:28:04;;;;;;;9.95;3.03;;;9.90;56.10;;;;;;5094242;28;20081;-75
2021/03/17 05:30:38;;;;;;;13.20;4.20;;;9.90;56.10;;;;;;5102275;28;20056;-75
2021/03/17 05:33:08;;;;;;;12.80;3.50;;;9.90;56.00;;;;;;5097836;28;20358;-75
2021/03/17 05:35:35;;;;;;;17.20;4.07;;;9.90;56.10;;;;;;5094952;28;20024;-75
2021/03/17 05:38:02;;;;;;;13.35;3.53;;;9.80;55.80;;;;;;5101959;28;20027;-75
2021/03/17 05:40:29;;;;;;;15.10;3.22;;;9.70;56.40;;;;;;5102363;28;20024;-75
2021/03/17 05:43:00;;;;;;;7.35;3.03;;;9.70;56.00;;;;;;5103899;28;20028;-75
2021/03/17 05:45:27;;;;;;;9.30;3.03;;;9.60;56.30;;;;;;5102591;28;20020;-74
2021/03/17 05:48:12;;;;;;;5.32;2.83;;;9.60;56.40;;;;;;5099163;28;20019;-75
2021/03/17 05:50:39;;;;;;;10.38;3.00;;;9.50;56.30;;;;;;5103266;28;20066;-75
2021/03/17 05:53:09;;;;;;;8.45;2.88;;;9.50;56.30;;;;;;5101376;27;20020;-75
2021/03/17 05:55:36;;;;;;;12.07;3.28;;;9.40;56.30;;;;;;5103536;28;20093;-75
2021/03/17 05:58:03;;;;;;;13.32;3.22;;;9.40;56.50;;;;;;5099375;28;20028;-75
2021/03/17 06:00:30;;;;;;;7.57;3.08;;;9.30;56.30;;;;;;5095998;28;20066;-76
2021/03/17 06:02:58;;;;;;;7.45;3.35;;;9.30;56.40;;;;;;5095737;28;20033;-74
2021/03/17 06:05:25;;;;;;;14.13;4.55;;;9.30;56.30;;;;;;5093691;28;20024;-75
2021/03/17 06:07:59;;;;;;;4.07;2.90;;;9.30;56.50;;;;;;5098503;28;20419;-74
2021/03/17 06:10:27;;;;;;;11.57;4.38;;;9.20;56.60;;;;;;5097409;28;20094;-74
2021/03/17 06:13:14;;;;;;;10.60;4.55;;;9.20;56.80;;;;;;5094003;28;20028;-74
2021/03/17 06:15:45;;;;;;;11.52;3.78;;;9.10;56.60;;;;;;5093452;28;20035;-74
2021/03/17 06:18:26;;;;;;;9.27;3.88;;;9.00;56.80;;;;;;5090850;28;20997;-74
2021/03/17 06:20:55;;;;;;;14.00;4.13;;;9.00;56.50;;;;;;5094545;28;20455;-74
2021/03/17 06:23:21;;;;;;;13.85;3.55;;;9.00;56.90;;;;;;5096889;28;20028;-75
2021/03/17 06:25:49;;;;;;;10.60;3.28;;;8.90;57.20;;;;;;5097950;28;20462;-75
2021/03/17 06:28:15;;;;;;;9.77;2.72;;;8.90;57.20;;;;;;5093400;28;20019;-74
2021/03/17 06:30:45;;;;;;;19.52;5.97;;;8.80;57.40;;;;;;5088401;28;20020;-75
2021/03/17 06:33:11;;;;;;;9.93;3.47;;;8.70;57.20;;;;;;5092961;28;20444;-75
2021/03/17 06:35:38;;;;;;;16.77;3.13;;;8.70;57.50;;;;;;5101352;28;20028;-75
2021/03/17 06:38:04;;;;;;;7.65;3.08;;;8.70;57.20;;;;;;5101784;28;20023;-75
2021/03/17 06:40:37;;;;;;;6.38;3.20;;;8.60;57.20;;;;;;5102148;28;20081;-74
2021/03/17 06:43:10;;;;;;;11.95;3.08;;;8.60;57.50;;;;;;5102839;28;20081;-74
2021/03/17 06:45:46;;;;;;;7.82;3.03;;;8.60;57.60;;;;;;5097717;28;20035;-74
2021/03/17 06:48:27;;;;;;;7.13;2.78;;;8.50;57.40;;;;;;5097388;28;20020;-75
2021/03/17 06:51:12;;;;;;;9.48;3.78;;;8.50;57.20;;;;;;5098357;28;20077;-75
2021/03/17 06:53:40;;;;;;;9.90;2.97;;;8.40;57.20;;;;;;5102270;28;20063;-74
2021/03/17 06:56:23;;;;;;;21.50;3.65;;;8.40;57.40;;;;;;5104129;28;20039;-75
2021/03/17 06:58:52;;;;;;;19.10;4.65;;;8.40;57.20;;;;;;5104428;28;20020;-74
2021/03/17 07:01:29;;;;;;;21.42;5.45;;;8.40;55.40;;;;;;5101701;28;20027;-75
2021/03/17 07:04:06;;;;;;;12.35;4.40;;;8.50;56.10;;;;;;5103156;28;20064;-74
2021/03/17 07:06:34;;;;;;;23.05;4.15;;;8.40;56.10;;;;;;5100563;28;20107;-75
2021/03/17 07:09:18;;;;;;;17.40;4.28;;;8.40;57.90;;;;;;5104973;28;20128;-75
2021/03/17 07:11:47;;;;;;;21.05;4.05;;;8.30;56.30;;;;;;5101477;28;20358;-75
2021/03/17 07:16:59;;;;;;;28.55;4.82;;;8.20;56.30;;;;;;5095907;28;20042;-74
2021/03/17 07:19:34;;;;;;;13.07;4.55;;;8.20;56.60;;;;;;5093433;28;20110;-74
2021/03/17 07:22:16;;;;;;;20.88;3.80;;;8.10;57.20;;;;;;5097280;28;20144;-74
2021/03/17 07:24:45;;;;;;;14.43;4.43;;;8.00;57.10;;;;;;5103205;28;20023;-74
2021/03/17 07:27:20;;;;;;;15.00;4.05;;;8.00;56.80;;;;;;5097021;28;20029;-74
2021/03/17 07:30:06;;;;;;;16.25;5.03;;;7.90;57.90;;;;;;5100945;28;20027;-74
2021/03/17 07:33:06;;;;;;;14.85;4.05;;;7.90;57.60;;;;;;5100301;28;20085;-74
2021/03/17 07:35:34;;;;;;;13.40;3.67;;;7.90;57.20;;;;;;5099715;28;20027;-74
2021/03/17 07:38:12;;;;;;;15.55;3.97;;;7.80;58.50;;;;;;5102952;28;20353;-74
2021/03/17 07:40:43;;;;;;;18.23;3.90;;;7.80;57.60;;;;;;5103026;28;20442;-74
2021/03/17 07:43:11;;;;;;;16.50;3.47;;;7.80;57.20;;;;;;5099395;28;20032;-74
2021/03/17 07:45:38;;;;;;;23.55;6.47;;;7.80;57.40;;;;;;5099897;28;20358;-74
2021/03/17 07:48:07;;;;;;;15.10;3.97;;;7.80;58.00;;;;;;5093863;28;20020;-74
2021/03/17 07:50:34;;;;;;;11.10;3.65;;;7.80;58.60;;;;;;5100549;28;20024;-74
2021/03/17 07:53:06;;;;;;;14.70;4.00;;;7.70;58.00;;;;;;5101974;28;20027;-74
2021/03/17 07:55:34;;;;;;;13.15;4.35;;;7.60;59.20;;;;;;5101727;28;20031;-74
2021/03/17 07:58:01;;;;;;;17.30;4.65;;;7.60;58.60;;;;;;5096054;28;20027;-74
2021/03/17 08:00:28;;;;;;;16.58;4.22;;;7.60;59.00;;;;;;5102061;28;20446;-74
2021/03/17 08:02:55;;;;;;;17.30;3.92;;;7.60;57.90;;;;;;5104860;28;20032;-76
2021/03/17 08:05:22;;;;;;;17.67;4.32;;;7.60;57.80;;;;;;5103228;28;20349;-74
2021/03/17 08:07:50;;;;;;;20.23;4.25;;;7.60;58.20;;;;;;5104035;28;20028;-74
2021/03/17 08:10:17;;;;;;;30.92;8.40;;;7.60;58.30;;;;;;5104426;28;20081;-74
2021/03/17 08:12:43;;;;;;;20.20;5.25;;;7.60;58.50;;;;;;5105369;28;20024;-74
2021/03/17 08:15:14;;;;;;;17.70;4.75;;;7.50;58.80;;;;;;5105331;28;20058;-74
2021/03/17 08:17:40;;;;;;;12.77;4.70;;;7.50;59.70;;;;;;5102167;28;20536;-74
2021/03/17 08:20:20;;;;;;;10.65;4.20;;;7.50;58.50;;;;;;5102301;28;20027;-74
2021/03/17 08:22:48;;;;;;;14.57;3.97;;;7.50;58.70;;;;;;5105535;28;20024;-74
2021/03/17 08:25:38;;;;;;;11.38;3.47;;;7.50;59.40;;;;;;5103294;28;20807;-74
2021/03/17 08:28:27;;;;;;;15.57;4.35;;;7.50;59.20;;;;;;5088042;28;20043;-74
2021/03/17 08:30:56;;;;;;;16.35;5.10;;;7.60;60.00;;;;;;5103993;28;20020;-74
2021/03/17 08:33:39;;;;;;;14.38;4.75;;;7.70;60.20;;;;;;5103730;28;20115;-74
2021/03/17 08:36:10;;;;;;;12.68;4.18;;;7.60;59.40;;;;;;5104396;28;20031;-74
2021/03/17 08:38:57;;;;;;;15.95;4.18;;;7.60;60.60;;;;;;5105979;28;20028;-74
2021/03/17 08:41:42;;;;;;;20.48;5.32;;;7.60;60.10;;;;;;5104461;28;20017;-74
2021/03/17 08:44:19;;;;;;;17.70;4.30;;;7.60;60.40;;;;;;5101301;28;20049;-74
2021/03/17 08:46:47;;;;;;;17.77;4.00;;;7.50;60.30;;;;;;5102283;28;20020;-74
2021/03/17 08:49:47;;;;;;;22.50;3.75;;;7.60;60.60;;;;;;5102493;28;20023;-73
2021/03/17 08:52:21;;;;;;;16.08;4.55;;;7.70;62.30;;;;;;5048806;28;20401;-74
2021/03/17 08:54:55;;;;;;;14.98;3.75;;;7.70;61.80;;;;;;5102086;28;20035;-74
2021/03/17 08:57:21;;;;;;;11.02;3.90;;;7.60;61.00;;;;;;5101725;28;20114;-74
2021/03/17 09:00:01;;;;;;;17.33;4.38;;;7.60;60.80;;;;;;5103500;28;20019;-74
2021/03/17 09:02:29;;;;;;;16.02;3.95;;;7.50;60.40;;;;;;5100614;28;20104;-74
2021/03/17 09:05:16;;;;;;;18.27;4.43;;;7.70;62.10;;;;;;5105839;28;20020;-74
2021/03/17 09:08:01;;;;;;;17.05;4.50;;;7.60;61.40;;;;;;5105385;28;20107;-74
2021/03/17 09:10:48;;;;;;;14.82;5.25;;;7.60;61.80;;;;;;5099538;28;20038;-74
2021/03/17 09:13:35;;;;;;;16.63;4.82;;;7.60;62.30;;;;;;5103882;28;20081;-73
2021/03/17 09:16:04;;;;;;;13.18;4.05;;;7.60;61.80;;;;;;5098649;28;20032;-74
2021/03/17 09:18:30;;;;;;;19.85;6.70;;;7.60;62.60;;;;;;5103911;28;20089;-74
2021/03/17 09:20:58;;;;;;;10.65;3.58;;;7.60;63.00;;;;;;5098068;28;20428;-75
2021/03/17 09:23:35;;;;;;;14.00;3.60;;;7.60;62.50;;;;;;5101020;28;20020;-73
2021/03/17 09:26:03;;;;;;;18.98;4.38;;;7.60;63.10;;;;;;5100215;28;20024;-74
2021/03/17 09:28:31;;;;;;;15.90;3.90;;;7.70;64.20;;;;;;5098718;28;20122;-74
2021/03/17 09:31:06;;;;;;;17.13;3.75;;;7.60;63.20;;;;;;5100630;28;20028;-74
2021/03/17 09:33:35;;;;;;;15.27;3.80;;;7.50;62.90;;;;;;5100101;28;20047;-74
2021/03/17 09:36:03;;;;;;;12.85;3.75;;;7.50;62.50;;;;;;5104710;28;20028;-75
2021/03/17 09:38:32;;;;;;;20.60;3.97;;;7.50;63.30;;;;;;5102192;28;20023;-74
2021/03/17 09:41:09;;;;;;;19.00;4.18;;;7.60;63.30;;;;;;5104169;28;20027;-74
2021/03/17 09:43:35;;;;;;;9.85;4.43;;;7.60;63.00;;;;;;5099940;28;20069;-74
2021/03/17 09:46:28;;;;;;;19.00;3.50;;;7.60;62.80;;;;;;5101610;28;20628;-74
2021/03/17 09:49:13;;;;;;;;;;;7.60;63.20;;;;;;5099029;28;20017;-74
2021/03/17 09:51:51;;;;;;;8.73;3.88;;;7.60;62.90;;;;;;5102771;28;19912;-73
2021/03/17 09:54:26;;;;;;;12.50;3.58;;;7.50;63.00;;;;;;5105068;28;20111;-74
2021/03/17 09:56:54;;;;;;;13.13;3.53;;;7.50;63.10;;;;;;5100844;28;20166;-74
2021/03/17 09:59:35;;;;;;;8.88;4.47;;;7.60;64.10;;;;;;5098790;28;20477;-74
2021/03/17 10:02:09;;;;;;;17.90;4.05;;;7.50;62.90;;;;;;5100247;28;20128;-74
2021/03/17 10:04:45;;;;;;;17.98;3.75;;;7.40;62.50;;;;;;5103372;28;20023;-74
2021/03/17 10:07:15;;;;;;;19.20;4.00;;;7.50;63.10;;;;;;5101756;28;20019;-74
2021/03/17 10:09:43;;;;;;;9.43;4.47;;;7.60;63.90;;;;;;5101675;28;20034;-74
2021/03/17 10:12:15;;;;;;;14.52;3.75;;;7.70;63.10;;;;;;5101651;28;20031;-74
2021/03/17 10:15:09;;;;;;;10.10;3.78;;;7.60;63.10;;;;;;5101363;28;20036;-74
2021/03/17 10:17:36;;;;;;;20.40;3.80;;;7.60;63.30;;;;;;5098521;28;20031;-74
2021/03/17 10:20:12;;;;;;;12.63;3.88;;;7.40;63.70;;;;;;5100641;28;20097;-74
2021/03/17 10:22:38;;;;;;;11.20;3.88;;;7.40;63.00;;;;;;5098947;28;20350;-73
2021/03/17 10:25:22;;;;;;;11.70;3.83;;;7.40;62.80;;;;;;5101101;28;20024;-74
2021/03/17 10:27:57;;;;;;;16.60;4.00;;;7.50;63.10;;;;;;5097312;28;20024;-75
2021/03/17 10:30:31;;;;;;;20.60;4.07;;;7.50;63.80;;;;;;5104362;28;20445;-74
2021/03/17 10:33:01;;;;;;;17.52;6.05;;;7.50;63.40;;;;;;5101576;28;20031;-74
2021/03/17 10:35:30;;;;;;;10.68;3.80;;;7.50;63.20;;;;;;5100893;28;20384;-74
2021/03/17 10:37:59;;;;;;;21.45;4.90;;;7.50;63.10;;;;;;5104528;28;20069;-73
2021/03/17 10:40:28;;;;;;;14.23;3.20;;;7.40;63.30;;;;;;5101362;28;20063;-74
2021/03/17 10:42:56;;;;;;;12.10;3.38;;;7.40;63.30;;;;;;5100249;28;20019;-73
2021/03/17 10:45:25;;;;;;;16.25;3.55;;;7.40;64.20;;;;;;5102345;28;20026;-73
2021/03/17 10:47:52;;;;;;;11.57;3.30;;;7.40;64.20;;;;;;5099849;28;20099;-74
2021/03/17 10:50:37;;;;;;;21.20;4.22;;;7.40;63.60;;;;;;5103613;28;20029;-74
2021/03/17 10:53:34;;;;;;;10.85;4.00;;;7.50;64.00;;;;;;5102114;28;20111;-74
2021/03/17 10:56:01;;;;;;;20.17;3.75;;;7.40;64.10;;;;;;5097487;28;20461;-73
2021/03/17 10:58:29;;;;;;;16.27;4.40;;;7.50;64.70;;;;;;5101190;28;20031;-74
2021/03/17 11:00:58;;;;;;;15.40;5.05;;;7.50;64.40;;;;;;5099961;28;20050;-76
2021/03/17 11:03:32;;;;;;;15.75;5.25;;;7.60;64.60;;;;;;5098757;28;20028;-74
2021/03/17 11:06:17;;;;;;;18.00;3.85;;;7.50;63.80;;;;;;5104097;28;20027;-75
2021/03/17 11:09:02;;;;;;;12.57;5.18;;;7.50;63.90;;;;;;5099635;28;20476;-74
2021/03/17 11:11:29;;;;;;;11.88;3.97;;;7.40;64.00;;;;;;5100122;28;20030;-74
2021/03/17 11:13:55;;;;;;;13.45;3.40;;;7.40;64.60;;;;;;5102064;28;20046;-74
2021/03/17 11:16:37;;;;;;;17.40;4.28;;;7.40;64.70;;;;;;5100533;28;20430;-73
2021/03/17 11:19:11;;;;;;;22.38;3.95;;;7.50;64.40;;;;;;5100907;28;20031;-74
2021/03/17 11:21:40;;;;;;;8.00;4.05;;;7.50;64.70;;;;;;5102107;28;20469;-75
2021/03/17 11:24:17;;;;;;;9.50;4.35;;;7.50;64.30;;;;;;5099299;28;20369;-74
2021/03/17 11:26:45;;;;;;;14.77;4.95;;;7.30;64.80;;;;;;5100949;28;20484;-74
2021/03/17 11:29:20;;;;;;;17.00;4.03;;;7.30;64.60;;;;;;5101591;28;20064;-75
2021/03/17 11:31:48;;;;;;;12.27;3.50;;;7.30;64.70;;;;;;5102592;28;20024;-76
2021/03/17 11:34:16;;;;;;;10.63;4.35;;;7.20;64.50;;;;;;5104334;28;20028;-74
2021/03/17 11:36:43;;;;;;;13.60;5.07;;;7.20;64.40;;;;;;5099223;28;20060;-74
2021/03/17 11:39:12;;;;;;;19.38;4.90;;;7.20;65.00;;;;;;5103952;28;20024;-74
2021/03/17 11:41:41;;;;;;;11.73;4.47;;;7.30;64.80;;;;;;5104750;28;20434;-76
2021/03/17 11:44:08;;;;;;;13.35;3.80;;;7.20;64.30;;;;;;5104053;28;20039;-74
2021/03/17 11:46:35;;;;;;;13.15;3.28;;;7.10;64.30;;;;;;5104069;28;20024;-74
2021/03/17 11:49:01;;;;;;;13.20;3.75;;;7.20;64.70;;;;;;5103737;28;20017;-74
2021/03/17 11:51:28;;;;;;;13.20;4.03;;;7.10;64.20;;;;;;5102693;28;20108;-74
2021/03/17 11:53:55;;;;;;;16.25;4.88;;;7.20;65.00;;;;;;5104559;28;20031;-74
2021/03/17 11:56:21;;;;;;;11.00;5.32;;;7.30;64.50;;;;;;5104071;28;20123;-74
2021/03/17 11:58:49;;;;;;;34.83;6.55;;;7.30;65.00;;;;;;5102461;28;20028;-74
2021/03/17 12:01:16;;;;;;;6.95;4.00;;;7.20;64.60;;;;;;5104156;28;20115;-74
2021/03/17 12:03:43;;;;;;;10.82;4.57;;;7.10;64.90;;;;;;5101950;28;20036;-74
2021/03/17 12:06:10;;;;;;;8.80;4.53;;;7.00;64.90;;;;;;5102539;28;20348;-74
2021/03/17 12:08:36;;;;;;;13.93;5.47;;;6.90;65.00;;;;;;5103825;28;20016;-74
2021/03/17 12:11:03;;;;;;;13.52;4.38;;;6.80;65.20;;;;;;5104513;28;20058;-74
2021/03/17 12:13:30;;;;;;;10.98;3.13;;;6.90;64.70;;;;;;5096702;28;20035;-74
2021/03/17 12:15:56;;;;;;;16.88;3.70;;;7.00;64.70;;;;;;5107074;28;20056;-75
2021/03/17 12:18:23;;;;;;;13.15;3.85;;;6.90;64.10;;;;;;5102129;28;20119;-75
2021/03/17 12:20:50;;;;;;;14.35;3.95;;;6.90;64.60;;;;;;5104863;28;20032;-74
2021/03/17 12:23:18;;;;;;;16.35;4.88;;;7.00;65.00;;;;;;5100019;28;20024;-74
2021/03/17 12:25:47;;;;;;;14.48;3.97;;;7.10;64.90;;;;;;5104680;28;20024;-74
2021/03/17 12:28:15;;;;;;;19.35;4.35;;;7.00;64.40;;;;;;5103431;27;20446;-74
2021/03/17 12:30:42;;;;;;;10.70;3.58;;;7.00;64.70;;;;;;5102892;28;20031;-74
2021/03/17 12:33:09;;;;;;;11.55;4.15;;;7.20;64.80;;;;;;5104703;28;20051;-75
2021/03/17 12:35:35;;;;;;;15.10;4.05;;;7.20;64.90;;;;;;5100367;28;20365;-74
2021/03/17 12:38:03;;;;;;;12.63;4.35;;;7.10;64.50;;;;;;5101083;28;20024;-74
2021/03/17 12:40:30;;;;;;;14.38;4.72;;;7.10;64.80;;;;;;5104488;28;20039;-74
2021/03/17 12:42:59;;;;;;;17.45;3.72;;;7.10;65.30;;;;;;5101841;28;20060;-75
2021/03/17 12:45:28;;;;;;;23.10;5.68;;;7.10;65.50;;;;;;5103834;28;20035;-74
2021/03/17 12:47:55;;;;;;;15.52;4.15;;;7.10;66.10;;;;;;5101992;28;20031;-74
2021/03/17 12:50:23;;;;;;;14.05;4.93;;;7.20;66.30;;;;;;5103970;28;20031;-74
2021/03/17 12:52:50;;;;;;;13.73;3.50;;;7.30;65.70;;;;;;5101653;28;20062;-74
2021/03/17 12:55:17;;;;;;;17.52;6.07;;;7.30;66.00;;;;;;5105474;28;20370;-74
2021/03/17 12:57:44;;;;;;;14.18;3.70;;;7.30;65.50;;;;;;5099347;28;20039;-76
2021/03/17 13:00:14;;;;;;;13.68;4.10;;;7.10;65.30;;;;;;5102539;28;20024;-74
2021/03/17 13:02:41;;;;;;;18.38;4.80;;;7.00;65.30;;;;;;5103238;28;20103;-74
2021/03/17 13:05:10;;;;;;;11.73;3.58;;;7.00;66.20;;;;;;5102687;28;20046;-75
2021/03/17 13:07:37;;;;;;;8.77;4.05;;;7.00;65.10;;;;;;5102688;28;20032;-74